Lander, WY

1:31 PM MST on December 06, 2016 (GMT -0700)
South Pass

Weather History for KFWZ - June, 2014

Change the Weather History Date:

Tuesday, June 3, 2014

  Actual Average (KLND) Record (KLND)
Temperature  
Mean Temperature 58 °F 59 °F  
Max Temperature 64 °F 73 °F 89 °F (1977)
Min Temperature 51 °F 45 °F 25 °F (1951)
Degree Days  
Heating Degree Days 8 7  
Month to date heating degree days 22  
Since 1 June heating degree days 22  
Since 1 July heating degree days 7644  
Cooling Degree Days 0 1  
Month to date cooling degree days 3  
Year to date cooling degree days 8  
Since 1 June cooling degree days 3  
Growing Degree Days 8 (Base 50)    
Moisture  
Dew Point 25 °F    
Average Humidity 30    
Maximum Humidity 41    
Minimum Humidity 14    
Precipitation  
Precipitation 0.00 in 0.07 in 1.54 in (1898)
Month to date precipitation 0.19  
Year to date precipitation 6.41  
Snow  
Snow 0.00 in 0.00 in - ()
Month to date snowfall 0.0  
Since 1 June snowfall 0.0  
Since 1 July snowfall 91.3  
Snow Depth -    
Sea Level Pressure  
Sea Level Pressure 30.01 in    
Wind  
Wind Speed 10 mph (West)    
Max Wind Speed 23 mph    
Max Gust Speed 33 mph    
Visibility 10 miles    
Events      
T = Trace of Precipitation, MM = Missing Value Source: NWS Daily Summary

Daily Weather History Graph

Daily Weather History Graph

Search for Another Location

Airport or City:

Trip Planner

Search our weather history database for the weather conditions in past years. The results will help you decide how hot, cold, wet, or windy it might be!

Date:

Astronomy

Jun. 03, 2014 Rise Set
Actual Time 5:39 AM MDT 8:47 PM MDT
Civil Twilight 5:05 AM MDT 9:21 PM MDT
Nautical Twilight 4:21 AM MDT 10:05 PM MDT
Astronomical Twilight 3:29 AM MDT 10:58 PM MDT
Moon 11:10 AM MDT (6/3) 12:13 AM MDT (6/3)
Length of Visible Light 16h 16m
Length of Day
15h 08m
Waxing Crescent, 30% of the Moon is Illuminated
Jun 3
Waxing Crescent
Jun 5
First Quarter
Jun 12
Full
Jun 19
Last Quarter
Jun 27
New

Hourly Weather History & Observations

Time (MDT) Temp. Dew Point Humidity Pressure Visibility Wind Dir Wind Speed Gust Speed Precip Events Conditions
12:15 AM 53.6 °F 26.6 °F 35% 30.05 in 10.0 mi NW 11.5 mph - N/A   Overcast
12:35 AM 53.6 °F 26.6 °F 35% 30.06 in 10.0 mi NW 9.2 mph - N/A   Overcast
12:55 AM 53.6 °F 26.6 °F 35% 30.05 in 10.0 mi NNW 9.2 mph - N/A   Overcast
1:15 AM 53.6 °F 26.6 °F 35% 30.04 in 10.0 mi NE 6.9 mph - N/A   Overcast
1:35 AM 55.4 °F 26.6 °F 33% 30.03 in 10.0 mi North 6.9 mph - N/A   Overcast
1:55 AM 53.6 °F 28.4 °F 38% 30.03 in 10.0 mi North 5.8 mph - N/A   Overcast
2:15 AM 53.6 °F 28.4 °F 38% 30.03 in 10.0 mi NNE 3.5 mph - N/A   Overcast
2:35 AM 53.6 °F 28.4 °F 38% 30.03 in 10.0 mi Calm Calm - N/A   Overcast
2:55 AM 53.6 °F 28.4 °F 38% 30.02 in 10.0 mi Calm Calm - N/A   Overcast
3:15 AM 55.4 °F 28.4 °F 36% 30.02 in 10.0 mi SSW 4.6 mph - N/A   Overcast
3:35 AM 55.4 °F 28.4 °F 36% 30.00 in 10.0 mi NW 6.9 mph - N/A   Overcast
3:55 AM 55.4 °F 26.6 °F 33% 30.00 in 10.0 mi West 6.9 mph - N/A   Overcast
4:15 AM 55.4 °F 26.6 °F 33% 30.00 in 10.0 mi West 6.9 mph - N/A   Overcast
4:35 AM 55.4 °F 26.6 °F 33% 30.00 in 10.0 mi WSW 10.4 mph - N/A   Overcast
4:55 AM 55.4 °F 26.6 °F 33% 30.00 in 10.0 mi SW 5.8 mph - N/A   Overcast
5:15 AM 55.4 °F 26.6 °F 33% 30.00 in 10.0 mi WSW 11.5 mph 17.3 mph N/A   Overcast
5:35 AM 55.4 °F 26.6 °F 33% 29.99 in 10.0 mi SW 10.4 mph - N/A   Overcast
5:55 AM 53.6 °F 28.4 °F 38% 29.99 in 10.0 mi WSW 9.2 mph - N/A   Overcast
6:15 AM 53.6 °F 30.2 °F 41% 30.00 in 10.0 mi WSW 20.7 mph 27.6 mph N/A   Overcast
6:35 AM 55.4 °F 28.4 °F 36% 29.98 in 10.0 mi WSW 21.9 mph 31.1 mph N/A   Overcast
6:55 AM 55.4 °F 28.4 °F 36% 29.98 in 10.0 mi SW 9.2 mph 19.6 mph N/A   Overcast
7:15 AM 53.6 °F 30.2 °F 41% 29.99 in 10.0 mi SW 3.5 mph - N/A   Overcast
7:35 AM 53.6 °F 30.2 °F 41% 29.98 in 10.0 mi Calm Calm - N/A   Overcast
7:55 AM 53.6 °F 30.2 °F 41% 29.99 in 10.0 mi SW 3.5 mph - N/A   Overcast
8:15 AM 53.6 °F 30.2 °F 41% 29.98 in 10.0 mi South 6.9 mph - N/A   Overcast
8:35 AM 55.4 °F 30.2 °F 38% 29.98 in 10.0 mi South 9.2 mph - N/A   Overcast
8:55 AM 59.0 °F 30.2 °F 34% 29.98 in 10.0 mi South 8.1 mph 16.1 mph N/A   Overcast
9:15 AM 59.0 °F 30.2 °F 34% 29.98 in 10.0 mi SSE 10.4 mph - N/A   Overcast
9:35 AM 59.0 °F 30.2 °F 34% 29.98 in 10.0 mi South 12.7 mph 19.6 mph N/A   Overcast
9:55 AM 59.0 °F 21.2 °F 23% 29.98 in 10.0 mi SW 12.7 mph 24.2 mph N/A   Overcast
10:15 AM 59.0 °F 21.2 °F 23% 29.98 in 10.0 mi SSW 8.1 mph 25.3 mph N/A   Overcast
10:35 AM 59.0 °F 19.4 °F 22% 29.98 in 10.0 mi SW 15.0 mph 21.9 mph N/A   Overcast
10:55 AM 60.8 °F 19.4 °F 20% 29.98 in 10.0 mi SW 13.8 mph 28.8 mph N/A   Overcast
11:15 AM 60.8 °F 19.4 °F 20% 29.97 in 10.0 mi SSW 12.7 mph 25.3 mph N/A   Overcast
11:35 AM 60.8 °F 19.4 °F 20% 29.96 in 10.0 mi SW 12.7 mph 19.6 mph N/A   Overcast
11:55 AM 64.4 °F 14.0 °F 14% 29.96 in 10.0 mi WSW 23.0 mph 33.4 mph N/A   Overcast
12:15 PM 62.6 °F 12.2 °F 14% 29.96 in 10.0 mi WSW 18.4 mph 24.2 mph N/A   Overcast
12:35 PM 59.0 °F 17.6 °F 20% 29.99 in 10.0 mi West 11.5 mph 33.4 mph N/A   Overcast
12:55 PM 60.8 °F 17.6 °F 19% 29.99 in 10.0 mi WSW 21.9 mph 33.4 mph N/A   Overcast
1:15 PM 64.4 °F 17.6 °F 16% 29.96 in 10.0 mi SW 18.4 mph 25.3 mph N/A   Overcast
1:35 PM 64.4 °F 19.4 °F 18% 29.97 in 10.0 mi West 17.3 mph 25.3 mph N/A   Overcast
1:55 PM 62.6 °F 21.2 °F 20% 29.98 in 10.0 mi West 13.8 mph 25.3 mph N/A   Overcast
2:15 PM 64.4 °F 21.2 °F 19% 29.97 in 10.0 mi West 16.1 mph 27.6 mph N/A   Overcast
2:35 PM 64.4 °F 21.2 °F 19% 29.97 in 10.0 mi West 18.4 mph 29.9 mph N/A   Overcast
2:55 PM 64.4 °F 19.4 °F 18% 29.98 in 10.0 mi WSW 17.3 mph 28.8 mph N/A   Overcast
3:15 PM 64.4 °F 23.0 °F 21% 29.98 in 10.0 mi West 13.8 mph 27.6 mph N/A   Overcast
3:35 PM 64.4 °F 23.0 °F 21% 29.98 in 10.0 mi WNW 12.7 mph 29.9 mph N/A   Overcast
3:55 PM 64.4 °F 23.0 °F 21% 30.00 in 10.0 mi West 16.1 mph 26.5 mph N/A   Overcast
4:15 PM 64.4 °F 23.0 °F 21% 30.00 in 10.0 mi WSW 18.4 mph 25.3 mph N/A   Overcast
4:35 PM 64.4 °F 23.0 °F 21% 30.00 in 10.0 mi West 13.8 mph 23.0 mph N/A   Overcast
4:55 PM 64.4 °F 23.0 °F 21% 30.00 in 10.0 mi West 11.5 mph 26.5 mph N/A   Overcast
5:15 PM 64.4 °F 23.0 °F 21% 30.01 in 10.0 mi West 17.3 mph 24.2 mph N/A   Overcast
5:35 PM 64.4 °F 23.0 °F 21% 30.01 in 10.0 mi WSW 11.5 mph 18.4 mph N/A   Overcast
5:55 PM 64.4 °F 24.8 °F 22% 30.02 in 10.0 mi West 15.0 mph 18.4 mph N/A   Overcast
6:15 PM 62.6 °F 26.6 °F 26% 30.02 in 10.0 mi West 15.0 mph 24.2 mph N/A   Overcast
6:35 PM 62.6 °F 26.6 °F 26% 30.03 in 10.0 mi West 11.5 mph 23.0 mph N/A   Overcast
6:55 PM 62.6 °F 26.6 °F 26% 30.04 in 10.0 mi West 8.1 mph 19.6 mph N/A   Overcast
7:15 PM 62.6 °F 26.6 °F 26% 30.04 in 10.0 mi WNW 10.4 mph 19.6 mph N/A   Overcast
7:35 PM 60.8 °F 26.6 °F 27% 30.05 in 10.0 mi WNW 12.7 mph - N/A   Overcast
7:55 PM 60.8 °F 28.4 °F 29% 30.06 in 10.0 mi WNW 11.5 mph 17.3 mph N/A   Overcast
8:15 PM 59.0 °F 28.4 °F 31% 30.07 in 10.0 mi WNW 9.2 mph - N/A   Overcast
8:35 PM 59.0 °F 26.6 °F 29% 30.07 in 10.0 mi West 4.6 mph - N/A   Overcast
8:55 PM 55.4 °F 26.6 °F 33% 30.07 in 10.0 mi WNW 8.1 mph - N/A   Overcast
9:15 PM 55.4 °F 26.6 °F 33% 30.08 in 10.0 mi WNW 6.9 mph - N/A   Overcast
9:35 PM 55.4 °F 26.6 °F 33% 30.09 in 10.0 mi WNW 8.1 mph - N/A   Overcast
9:55 PM 53.6 °F 28.4 °F 38% 30.09 in 10.0 mi WNW 5.8 mph - N/A   Overcast
10:15 PM 51.8 °F 28.4 °F 41% 30.09 in 10.0 mi NW 9.2 mph - N/A   Overcast
10:35 PM 53.6 °F 26.6 °F 35% 30.10 in 10.0 mi WNW 8.1 mph - N/A   Overcast
10:55 PM 53.6 °F 26.6 °F 35% 30.10 in 10.0 mi WNW 6.9 mph - N/A   Overcast
11:15 PM 53.6 °F 26.6 °F 35% 30.10 in 10.0 mi WNW 9.2 mph - N/A   Overcast
11:35 PM 51.8 °F 28.4 °F 41% 30.10 in 10.0 mi WNW 9.2 mph - N/A   Overcast
11:55 PM 51.8 °F 28.4 °F 41% 30.10 in 10.0 mi WNW 9.2 mph - N/A   Overcast